Time;durP1;ratioP1;P1;durP2;ratioP2;P2;SDS_P1;SDS_P2;PMS_P1;PMS_P2;Temp;Humidity;BMP_temperature;BMP_pressure;BME280_temperature;BME280_humidity;BME280_pressure;Samples;Min_cycle;Max_cycle;Signal;HPM_P1;HPM_P2
2022/07/17 00:01:42;;;;;;;2.83;2.63;;;;;;;21.89;67.48;64267.69;5024065;28;20525;-80
2022/07/17 00:04:08;;;;;;;2.70;2.60;;;;;;;21.85;67.44;64264.00;5024499;28;20260;-77
2022/07/17 00:06:35;;;;;;;5.22;2.75;;;;;;;21.85;67.63;64266.09;5024206;28;20225;-77
2022/07/17 00:09:02;;;;;;;2.78;2.65;;;;;;;21.76;67.79;64255.13;5023286;28;20202;-78
2022/07/17 00:11:30;;;;;;;2.38;2.28;;;;;;;21.65;67.90;64241.03;5023158;28;20218;-78
2022/07/17 00:13:58;;;;;;;2.70;2.50;;;;;;;21.69;68.30;64247.81;5023993;28;20208;-78
2022/07/17 00:16:25;;;;;;;3.13;2.92;;;;;;;21.66;68.45;64244.66;5023385;28;20230;-76
2022/07/17 00:18:52;;;;;;;3.22;3.00;;;;;;;21.68;68.46;64244.16;5022972;28;20209;-77
2022/07/17 00:21:19;;;;;;;4.20;2.80;;;;;;;21.70;68.38;64248.84;5023972;28;20410;-77
2022/07/17 00:23:46;;;;;;;2.95;2.63;;;;;;;21.65;68.62;64241.03;5022991;28;20230;-77
2022/07/17 00:26:13;;;;;;;4.22;2.50;;;;;;;21.59;68.87;64234.75;5023956;28;20224;-79
2022/07/17 00:28:41;;;;;;;2.97;2.78;;;;;;;21.60;68.63;64237.88;5022745;28;20205;-77
2022/07/17 00:31:09;;;;;;;2.80;2.70;;;;;;;21.52;69.35;64226.91;5024106;28;20234;-77
2022/07/17 00:33:36;;;;;;;3.05;2.78;;;;;;;21.53;69.06;64231.09;5023614;28;20204;-77
2022/07/17 00:36:03;;;;;;;4.22;2.35;;;;;;;21.51;69.69;64225.88;5025111;28;20233;-78
2022/07/17 00:38:30;;;;;;;3.20;3.10;;;;;;;21.48;70.72;64222.75;5023814;28;20202;-78
2022/07/17 00:40:58;;;;;;;2.72;2.60;;;;;;;21.39;71.19;64215.94;5023992;28;20230;-77
2022/07/17 00:43:26;;;;;;;2.38;2.28;;;;;;;21.42;70.11;64213.88;5023681;28;20253;-78
2022/07/17 00:45:58;;;;;;;2.90;2.42;;;;;;;21.38;71.24;64212.31;5023111;28;20391;-78
2022/07/17 00:48:27;;;;;;;3.17;2.90;;;;;;;21.37;71.26;64213.84;5020196;28;20208;-78
2022/07/17 00:50:55;;;;;;;3.10;2.85;;;;;;;21.31;70.96;64205.00;5024173;28;20228;-77
2022/07/17 00:53:23;;;;;;;2.78;2.60;;;;;;;21.33;70.17;64210.19;5023546;28;20222;-78
2022/07/17 00:55:51;;;;;;;4.82;2.58;;;;;;;21.37;70.50;64213.84;5023839;28;20289;-78
2022/07/17 00:58:22;;;;;;;2.75;2.50;;;;;;;21.31;70.16;64210.69;5024149;28;20208;-78
2022/07/17 01:00:51;;;;;;;2.72;2.60;;;;;;;21.33;69.66;64207.59;5024008;28;20214;-78
2022/07/17 01:03:19;;;;;;;3.10;2.90;;;;;;;21.22;70.54;64198.72;5022178;28;20233;-79
2022/07/17 01:05:48;;;;;;;2.70;2.50;;;;;;;21.23;70.50;64194.56;5022855;28;20224;-78
2022/07/17 01:08:15;;;;;;;2.67;2.47;;;;;;;21.28;70.14;64201.84;5023772;28;20217;-78
2022/07/17 01:10:42;;;;;;;3.45;2.70;;;;;;;21.27;69.75;64203.94;5023482;28;20252;-79
2022/07/17 01:13:09;;;;;;;2.95;2.67;;;;;;;21.36;69.33;64210.75;5022876;28;20249;-78
2022/07/17 01:15:38;;;;;;;2.50;2.40;;;;;;;21.24;69.18;64198.22;5023440;28;20214;-78
2022/07/17 01:18:07;;;;;;;2.83;2.70;;;;;;;21.27;69.59;64203.41;5022875;28;20210;-77
2022/07/17 01:20:35;;;;;;;2.42;2.20;;;;;;;21.20;69.54;64194.03;5024482;28;20213;-78
2022/07/17 01:23:03;;;;;;;2.80;2.60;;;;;;;21.14;69.65;64184.66;5024364;28;20276;-77
2022/07/17 01:25:30;;;;;;;6.20;2.72;;;;;;;21.08;69.84;64184.09;5028656;28;20225;-79
2022/07/17 01:27:57;;;;;;;2.25;2.15;;;;;;;21.14;69.44;64187.25;5028036;28;20201;-77
2022/07/17 01:30:24;;;;;;;2.60;2.50;;;;;;;21.06;69.22;64179.41;5027731;28;20475;-78
2022/07/17 01:32:51;;;;;;;3.00;2.78;;;;;;;21.07;69.10;64182.53;5026459;28;20206;-77
2022/07/17 01:35:18;;;;;;;2.47;2.28;;;;;;;20.96;69.52;64173.59;5029799;28;20210;-78
2022/07/17 01:37:46;;;;;;;2.72;2.50;;;;;;;20.98;69.66;64173.09;5030203;28;20206;-78
2022/07/17 01:40:16;;;;;;;3.75;2.50;;;;;;;21.04;68.84;64182.50;5026670;28;20262;-79
2022/07/17 01:42:44;;;;;;;2.60;2.30;;;;;;;21.04;68.82;64174.72;5025634;28;20233;-78
2022/07/17 01:45:12;;;;;;;3.03;2.78;;;;;;;20.95;69.35;64167.38;5027501;28;20198;-78
2022/07/17 01:47:40;;;;;;;3.22;2.90;;;;;;;20.99;68.84;64171.56;5026060;28;20209;-77
2022/07/17 01:50:08;;;;;;;2.05;1.95;;;;;;;20.90;69.67;64165.25;5025778;28;20523;-77
2022/07/17 01:52:37;;;;;;;3.65;2.38;;;;;;;20.93;69.34;64171.00;5026642;28;20277;-78
2022/07/17 01:55:04;;;;;;;2.63;2.53;;;;;;;21.02;68.87;64177.81;5027325;28;20205;-77
2022/07/17 01:57:33;;;;;;;3.15;2.85;;;;;;;21.01;68.75;64171.06;5026144;28;20217;-77
2022/07/17 02:00:00;;;;;;;3.45;2.67;;;;;;;21.00;68.61;64175.72;5025066;28;21452;-77
2022/07/17 02:02:27;;;;;;;2.42;2.33;;;;;;;21.07;69.00;64182.53;5025333;28;20233;-78
2022/07/17 02:04:54;;;;;;;3.00;2.70;;;;;;;21.04;69.33;64179.38;5020248;28;20206;-78
2022/07/17 02:07:21;;;;;;;3.10;2.90;;;;;;;21.07;68.83;64182.53;5016562;28;20225;-77
2022/07/17 02:09:48;;;;;;;2.90;2.67;;;;;;;21.01;68.70;64174.19;5029140;28;20479;-78
2022/07/17 02:12:15;;;;;;;2.85;2.65;;;;;;;20.93;69.20;64160.13;5026532;28;20229;-78
2022/07/17 02:14:43;;;;;;;2.67;2.58;;;;;;;20.88;67.46;64162.66;5026255;28;20534;-78
2022/07/17 02:17:10;;;;;;;2.95;2.72;;;;;;;20.83;67.69;64152.78;5025419;28;20218;-78
2022/07/17 02:19:37;;;;;;;2.85;2.75;;;;;;;20.87;66.52;64164.72;5027349;28;20205;-79
2022/07/17 02:22:04;;;;;;;2.40;2.30;;;;;;;20.88;67.18;64163.19;5026966;28;20214;-78
2022/07/17 02:24:31;;;;;;;2.55;2.45;;;;;;;20.93;67.26;64163.25;5026852;28;20206;-78
2022/07/17 02:26:58;;;;;;;2.08;1.98;;;;;;;20.90;67.61;64165.25;5026116;28;20418;-78
2022/07/17 02:29:25;;;;;;;5.53;3.30;;;;;;;20.92;67.69;64164.25;5027148;28;20195;-78
2022/07/17 02:31:53;;;;;;;2.75;2.63;;;;;;;20.88;67.52;64162.66;5025116;28;20232;-78
2022/07/17 02:34:20;;;;;;;3.08;2.97;;;;;;;20.82;68.26;64162.09;5027639;28;20332;-78
2022/07/17 02:36:47;;;;;;;6.90;5.38;;;;;;;20.77;68.58;64148.59;5027066;28;20234;-77
2022/07/17 02:39:13;;;;;;;3.05;2.85;;;;;;;20.74;68.40;64150.63;5027163;28;20198;-78
2022/07/17 02:41:41;;;;;;;5.70;2.97;;;;;;;20.69;68.01;64143.88;5025228;28;20224;-78
2022/07/17 02:44:07;;;;;;;6.15;3.20;;;;;;;20.66;68.58;64138.16;5026018;28;20293;-78
2022/07/17 02:46:34;;;;;;;3.00;2.80;;;;;;;20.61;68.68;64132.94;5024891;28;20245;-78
2022/07/17 02:49:03;;;;;;;2.92;2.72;;;;;;;20.52;69.36;64120.94;5024883;28;20205;-79
2022/07/17 02:51:30;;;;;;;2.97;2.80;;;;;;;20.34;69.75;64099.59;5024007;28;20419;-78
2022/07/17 02:53:57;;;;;;;3.13;3.03;;;;;;;20.29;70.08;64099.00;5024861;28;20198;-77
2022/07/17 02:56:24;;;;;;;2.80;2.67;;;;;;;20.26;70.73;64096.41;5013185;28;20605;-77
2022/07/17 02:58:54;;;;;;;2.78;2.60;;;;;;;20.15;70.86;64086.97;5024776;28;20197;-79
2022/07/17 03:01:21;;;;;;;2.63;2.53;;;;;;;20.13;69.36;64079.69;5024641;28;20210;-77
2022/07/17 03:03:48;;;;;;;2.63;2.42;;;;;;;20.16;69.72;64085.44;5024295;28;20280;-79
2022/07/17 03:06:16;;;;;;;2.80;2.60;;;;;;;20.14;69.45;64083.34;5024787;28;20261;-78
2022/07/17 03:08:43;;;;;;;2.67;2.50;;;;;;;20.16;69.50;64085.97;5005374;28;20203;-78
2022/07/17 03:11:10;;;;;;;3.00;2.80;;;;;;;20.16;68.89;64085.44;5016838;28;20226;-78
2022/07/17 03:13:37;;;;;;;3.30;2.75;;;;;;;20.22;68.32;64089.13;5023688;28;20233;-77
2022/07/17 03:16:04;;;;;;;3.75;2.70;;;;;;;20.29;67.50;64101.59;5008681;28;20531;-77
2022/07/17 03:18:31;;;;;;;3.35;3.08;;;;;;;20.33;66.86;64103.16;5022828;28;20208;-78
2022/07/17 03:20:58;;;;;;;7.53;2.90;;;;;;;20.32;65.89;64102.13;5024132;28;20237;-77
2022/07/17 03:23:26;;;;;;;2.70;2.55;;;;;;;20.41;65.33;64111.53;5024073;28;20300;-78
2022/07/17 03:25:54;;;;;;;2.60;2.50;;;;;;;20.43;64.69;64116.72;5024701;28;20218;-78
2022/07/17 03:28:21;;;;;;;2.67;2.58;;;;;;;20.42;64.94;64115.69;5022799;28;20213;-77
2022/07/17 03:30:47;;;;;;;3.85;2.50;;;;;;;20.50;63.88;64121.44;5023886;28;20323;-78
2022/07/17 03:33:14;;;;;;;3.83;2.53;;;;;;;20.50;63.50;64124.03;5025319;28;20189;-79
2022/07/17 03:35:41;;;;;;;2.50;2.38;;;;;;;20.51;62.99;64122.50;5025394;28;20557;-79
2022/07/17 03:38:08;;;;;;;4.07;2.42;;;;;;;20.57;61.99;64128.75;5027769;28;20198;-78
2022/07/17 03:40:36;;;;;;;2.92;2.72;;;;;;;20.53;61.20;64124.59;5028487;28;20260;-78
2022/07/17 03:43:03;;;;;;;2.67;2.47;;;;;;;20.55;59.67;64129.25;5027122;28;20232;-77
2022/07/17 03:45:30;;;;;;;2.70;2.47;;;;;;;20.62;59.63;64138.63;5026183;28;20210;-78
2022/07/17 03:47:57;;;;;;;5.53;2.80;;;;;;;20.71;58.43;64144.91;5023420;28;20202;-76
2022/07/17 03:50:24;;;;;;;2.67;2.47;;;;;;;20.80;57.75;64152.25;5024396;28;20194;-77
2022/07/17 03:52:51;;;;;;;2.47;2.30;;;;;;;20.89;55.57;64164.22;5026479;28;20198;-78
2022/07/17 03:55:18;;;;;;;2.88;2.17;;;;;;;21.02;54.38;64177.81;5024697;28;20222;-77
2022/07/17 03:57:46;;;;;;;2.25;2.10;;;;;;;21.05;54.53;64175.78;5024479;28;20225;-77
2022/07/17 04:00:14;;;;;;;2.85;2.25;;;;;;;21.13;53.84;64189.31;5025508;28;20257;-77
2022/07/17 04:02:42;;;;;;;1.95;1.85;;;;;;;21.20;53.60;64196.09;5026967;28;20265;-78
2022/07/17 04:05:10;;;;;;;2.58;2.38;;;;;;;21.33;52.76;64207.59;5025203;28;20202;-78
2022/07/17 04:07:37;;;;;;;2.33;2.22;;;;;;;21.36;52.65;64213.34;5023253;28;20209;-78
2022/07/17 04:10:05;;;;;;;2.47;2.28;;;;;;;21.40;52.61;64217.50;5025503;28;20206;-77
2022/07/17 04:12:33;;;;;;;2.42;2.33;;;;;;;21.53;52.17;64223.31;5024409;28;20283;-77
2022/07/17 04:15:01;;;;;;;2.90;2.30;;;;;;;21.57;51.51;64232.16;5024374;28;20220;-78
2022/07/17 04:17:28;;;;;;;2.38;2.25;;;;;;;21.63;51.00;64235.81;5023417;28;20233;-78
2022/07/17 04:19:56;;;;;;;2.45;2.35;;;;;;;21.71;50.50;64249.38;5024358;28;20397;-78
2022/07/17 04:22:23;;;;;;;3.13;2.70;;;;;;;21.62;50.71;64237.38;5024183;28;20293;-77
2022/07/17 04:24:50;;;;;;;2.45;2.25;;;;;;;21.61;50.36;64236.31;5023383;28;20289;-77
2022/07/17 04:27:17;;;;;;;4.70;2.45;;;;;;;21.78;51.04;64256.69;5022582;28;20236;-77
2022/07/17 04:29:44;;;;;;;2.30;2.10;;;;;;;21.89;50.74;64260.44;5023457;28;20194;-78
2022/07/17 04:32:12;;;;;;;2.83;2.50;;;;;;;22.11;50.53;64286.00;5023972;28;20920;-78
2022/07/17 04:34:39;;;;;;;3.30;2.60;;;;;;;22.26;49.98;64303.75;5023913;28;20440;-78
2022/07/17 04:37:06;;;;;;;3.17;2.50;;;;;;;22.28;49.29;64308.97;5022612;28;20281;-78
2022/07/17 04:39:33;;;;;;;2.40;2.20;;;;;;;22.36;48.92;64311.63;5023412;28;20205;-78
2022/07/17 04:42:00;;;;;;;2.40;2.30;;;;;;;22.43;48.18;64322.06;5023915;28;20210;-77
2022/07/17 04:44:26;;;;;;;3.25;2.95;;;;;;;22.52;48.91;64330.94;5021411;28;20454;-78
2022/07/17 04:46:55;;;;;;;3.42;2.55;;;;;;;22.61;49.41;64342.94;5022290;28;20252;-78
2022/07/17 04:49:24;;;;;;;4.45;2.38;;;;;;;22.70;49.48;64350.31;5023742;28;20269;-78
2022/07/17 04:51:51;;;;;;;3.47;2.50;;;;;;;22.54;49.06;64333.56;5023568;28;20221;-78
2022/07/17 04:54:18;;;;;;;2.50;2.30;;;;;;;22.61;46.79;64343.47;5023784;28;20202;-78
2022/07/17 04:56:45;;;;;;;2.30;2.10;;;;;;;22.72;47.15;64346.66;5024164;28;20222;-79
2022/07/17 04:59:12;;;;;;;2.22;1.98;;;;;;;22.78;46.65;64356.06;5028557;28;20278;-78
2022/07/17 05:01:39;;;;;;;2.30;2.10;;;;;;;22.92;45.48;64370.16;5027128;28;20237;-78
2022/07/17 05:04:06;;;;;;;1.80;1.75;;;;;;;23.06;44.69;64384.81;5026632;28;20235;-78
2022/07/17 05:06:34;;;;;;;2.28;2.17;;;;;;;22.86;44.68;64363.91;5023199;28;20457;-77
2022/07/17 05:09:02;;;;;;;2.08;1.90;;;;;;;22.73;45.32;64355.50;5029827;28;20194;-79
2022/07/17 05:11:29;;;;;;;2.10;2.00;;;;;;;22.91;45.21;64374.34;5029863;28;20214;-78
2022/07/17 05:13:55;;;;;;;5.05;2.10;;;;;;;23.00;44.82;64380.63;5028528;28;20225;-79
2022/07/17 05:16:22;;;;;;;2.90;2.30;;;;;;;23.03;44.53;64392.06;5030826;28;20229;-77
2022/07/17 05:18:49;;;;;;;2.22;2.10;;;;;;;22.90;44.31;64376.41;5031034;28;20198;-77
2022/07/17 05:21:16;;;;;;;2.50;2.33;;;;;;;22.69;45.05;64343.53;5028035;28;20218;-77
2022/07/17 05:23:45;;;;;;;2.33;2.22;;;;;;;22.64;45.00;64340.91;5027402;28;20234;-77
2022/07/17 05:26:12;;;;;;;2.55;2.35;;;;;;;22.44;44.45;64323.09;5028297;28;20292;-76
2022/07/17 05:28:38;;;;;;;2.20;2.00;;;;;;;22.28;45.43;64305.84;5028114;28;20456;-78
2022/07/17 05:31:06;;;;;;;3.13;2.88;;;;;;;22.61;44.81;64343.47;5028159;28;20273;-77
2022/07/17 05:33:33;;;;;;;2.92;2.05;;;;;;;22.73;44.21;64347.72;5028502;28;20240;-78
2022/07/17 05:36:00;;;;;;;2.45;2.28;;;;;;;22.92;44.44;64374.84;5014956;28;20274;-79
2022/07/17 05:38:27;;;;;;;3.15;2.22;;;;;;;22.92;45.21;64372.78;5028241;28;20368;-78
2022/07/17 05:40:55;;;;;;;5.38;2.30;;;;;;;23.00;44.29;64380.63;5026699;28;20229;-77
2022/07/17 05:43:22;;;;;;;2.20;2.10;;;;;;;22.82;44.59;64362.31;5026762;28;20202;-78
2022/07/17 05:45:49;;;;;;;3.25;2.20;;;;;;;23.05;44.34;64385.84;5027956;28;20233;-77
2022/07/17 05:48:16;;;;;;;2.35;2.25;;;;;;;23.23;43.31;64407.78;5029438;28;20194;-76
2022/07/17 05:50:43;;;;;;;2.38;2.28;;;;;;;23.40;43.10;64425.09;5028298;28;20454;-78
2022/07/17 05:53:10;;;;;;;2.40;2.10;;;;;;;23.51;43.55;64436.59;5028957;28;20244;-78
2022/07/17 05:55:36;;;;;;;3.40;2.60;;;;;;;23.47;43.36;64427.22;5029646;28;20218;-76
2022/07/17 05:58:05;;;;;;;2.58;2.33;;;;;;;23.14;43.25;64395.25;5027887;28;20202;-77
2022/07/17 06:00:32;;;;;;;2.80;2.55;;;;;;;23.13;42.74;64394.75;5026728;28;20230;-77
2022/07/17 06:02:59;;;;;;;2.17;2.08;;;;;;;23.23;42.75;64402.09;5028738;28;20217;-76
2022/07/17 06:05:26;;;;;;;2.42;2.30;;;;;;;23.40;43.94;64425.59;5017290;28;20234;-77
2022/07/17 06:07:54;;;;;;;3.33;2.35;;;;;;;23.51;43.29;64439.72;5024200;28;20213;-77
2022/07/17 06:10:21;;;;;;;2.75;2.55;;;;;;;23.46;42.91;64431.88;5027786;28;20475;-76
2022/07/17 06:12:49;;;;;;;2.38;2.28;;;;;;;23.44;42.42;64421.97;5025536;28;20217;-77
2022/07/17 06:15:17;;;;;;;3.65;2.40;;;;;;;23.52;42.51;64435.03;5027283;28;20431;-77
2022/07/17 06:17:44;;;;;;;2.63;2.42;;;;;;;23.69;42.39;64455.94;5025437;28;20194;-78
2022/07/17 06:20:12;;;;;;;2.90;2.80;;;;;;;23.50;43.64;64428.28;5025627;28;20204;-77
2022/07/17 06:22:40;;;;;;;2.58;2.47;;;;;;;23.58;42.57;64441.84;5025402;28;20229;-77
2022/07/17 06:25:08;;;;;;;5.22;2.70;;;;;;;23.59;44.05;64440.28;5026049;28;20232;-77
2022/07/17 06:27:36;;;;;;;2.47;2.38;;;;;;;23.82;42.56;64469.03;5024972;28;20214;-77
2022/07/17 06:30:03;;;;;;;2.90;2.70;;;;;;;23.59;43.23;64442.88;5033261;28;20201;-78
2022/07/17 06:32:31;;;;;;;3.33;2.35;;;;;;;23.54;43.49;64435.03;5027446;28;20236;-79
2022/07/17 06:34:58;;;;;;;2.53;2.40;;;;;;;23.66;43.07;64452.28;5018616;28;20205;-78
2022/07/17 06:37:25;;;;;;;2.72;2.53;;;;;;;23.85;42.73;64466.94;5026085;28;20226;-79
2022/07/17 06:39:52;;;;;;;3.65;2.63;;;;;;;24.01;42.50;64483.72;5026681;28;20260;-80
2022/07/17 06:42:19;;;;;;;3.03;2.63;;;;;;;24.05;41.88;64490.53;5024118;28;20214;-79
2022/07/17 06:44:46;;;;;;;2.75;2.63;;;;;;;23.76;42.94;64457.56;5026341;28;20501;-76
2022/07/17 06:47:13;;;;;;;2.45;2.35;;;;;;;23.47;44.01;64427.72;5027363;28;20454;-78
2022/07/17 06:49:43;;;;;;;3.60;2.65;;;;;;;23.82;43.74;64466.41;5008877;28;20198;-77
2022/07/17 06:52:10;;;;;;;2.80;2.13;;;;;;;23.93;43.97;64478.47;5022346;28;20237;-78
2022/07/17 06:54:36;;;;;;;3.35;3.03;;;;;;;24.07;42.86;64489.47;5025295;28;20214;-77
2022/07/17 06:57:04;;;;;;;2.60;2.40;;;;;;;24.06;42.10;64494.16;5027174;28;20224;-77
2022/07/17 06:59:31;;;;;;;2.17;2.15;;;;;;;24.15;42.27;64495.25;5025978;28;20278;-76
2022/07/17 07:01:59;;;;;;;2.60;2.40;;;;;;;24.34;42.67;64522.94;5025198;28;20232;-77
2022/07/17 07:04:25;;;;;;;2.70;2.50;;;;;;;24.45;41.85;64535.00;5027515;28;20234;-79
2022/07/17 07:06:54;;;;;;;2.58;2.47;;;;;;;24.17;43.16;64505.16;5024919;28;20256;-77
2022/07/17 07:09:21;;;;;;;2.83;2.63;;;;;;;24.28;42.03;64516.69;5024555;28;20194;-77
2022/07/17 07:11:48;;;;;;;3.60;2.78;;;;;;;24.26;41.71;64512.50;5024410;28;20222;-75
2022/07/17 07:14:15;;;;;;;2.97;2.80;;;;;;;24.06;43.40;64493.66;5024386;28;20213;-74
2022/07/17 07:16:42;;;;;;;2.92;2.72;;;;;;;24.13;44.11;64493.16;5024562;28;20220;-74
2022/07/17 07:19:08;;;;;;;3.30;3.10;;;;;;;24.31;43.57;64517.22;5024529;28;20214;-75
2022/07/17 07:21:35;;;;;;;2.42;2.33;;;;;;;24.23;42.39;64511.94;5021736;28;20285;-75
2022/07/17 07:24:04;;;;;;;3.30;3.10;;;;;;;24.38;43.35;64527.13;5022857;28;20228;-75
2022/07/17 07:26:31;;;;;;;3.78;3.47;;;;;;;24.38;42.89;64524.53;5020923;28;20232;-75
2022/07/17 07:28:58;;;;;;;4.57;2.63;;;;;;;24.53;41.73;64537.63;5023623;28;20194;-75
2022/07/17 07:31:25;;;;;;;2.80;2.70;;;;;;;23.94;42.93;64481.56;5022139;28;20222;-73
2022/07/17 07:33:52;;;;;;;2.17;2.17;;;;;;;24.26;42.67;64515.09;5023486;28;20202;-74
2022/07/17 07:36:19;;;;;;;3.08;2.20;;;;;;;24.08;42.96;64490.53;5022735;28;20370;-74
2022/07/17 07:38:46;;;;;;;2.65;2.55;;;;;;;24.25;43.92;64513.53;5024174;28;20258;-75
2022/07/17 07:41:15;;;;;;;3.15;2.95;;;;;;;24.21;43.32;64509.34;5024134;28;20336;-74
2022/07/17 07:43:42;;;;;;;4.20;3.17;;;;;;;24.25;43.92;64513.53;5023435;28;20208;-75
2022/07/17 07:46:09;;;;;;;3.00;2.70;;;;;;;24.55;42.66;64545.47;5022857;28;20285;-75
2022/07/17 07:48:36;;;;;;;3.22;2.83;;;;;;;24.45;41.57;64537.06;5024456;28;20530;-75
2022/07/17 07:51:03;;;;;;;2.70;2.50;;;;;;;24.52;41.71;64536.59;5023831;28;20511;-74
2022/07/17 07:53:30;;;;;;;2.65;2.45;;;;;;;24.68;41.36;64555.94;5020476;28;20198;-75
2022/07/17 07:55:58;;;;;;;5.38;2.70;;;;;;;24.72;42.25;64557.53;5021644;28;20257;-74
2022/07/17 07:58:26;;;;;;;2.75;2.65;;;;;;;24.48;42.09;64537.59;5024683;28;20217;-74
2022/07/17 08:00:53;;;;;;;4.40;2.97;;;;;;;24.82;41.56;64570.63;5026716;28;20272;-74
2022/07/17 08:03:20;;;;;;;2.72;2.60;;;;;;;24.88;40.66;64580.06;5020928;28;20222;-76
2022/07/17 08:05:47;;;;;;;2.58;2.47;;;;;;;24.96;41.01;64583.22;5027184;28;20249;-75
2022/07/17 08:08:13;;;;;;;4.70;2.80;;;;;;;25.18;41.11;64603.13;5026900;28;20207;-75
2022/07/17 08:10:40;;;;;;;3.13;3.03;;;;;;;25.44;40.38;64635.59;5025994;28;20237;-75
2022/07/17 08:13:07;;;;;;;3.00;2.70;;;;;;;25.55;40.56;64643.97;5025967;28;20194;-74
2022/07/17 08:15:36;;;;;;;3.55;3.35;;;;;;;25.33;39.82;64626.66;5025246;28;20270;-74
2022/07/17 08:18:03;;;;;;;4.85;3.10;;;;;;;25.31;41.67;64621.44;5023985;28;20499;-74
2022/07/17 08:20:30;;;;;;;2.92;2.72;;;;;;;25.06;42.36;64603.56;5023618;28;20240;-76
2022/07/17 08:22:57;;;;;;;2.70;2.50;;;;;;;25.24;40.66;64616.69;5023508;28;20202;-74
2022/07/17 08:25:25;;;;;;;3.28;2.97;;;;;;;25.40;39.53;64628.81;5023190;28;20272;-74
2022/07/17 08:27:52;;;;;;;3.28;2.50;;;;;;;25.44;39.43;64635.09;5025162;28;20206;-75
2022/07/17 08:30:18;;;;;;;2.88;2.67;;;;;;;25.28;39.14;64618.81;5022562;28;20190;-74
2022/07/17 08:32:47;;;;;;;4.22;2.33;;;;;;;24.89;39.56;64583.69;5023395;28;20247;-75
2022/07/17 08:35:14;;;;;;;2.80;2.60;;;;;;;25.03;39.04;64595.75;5010669;28;20257;-74
2022/07/17 08:37:46;;;;;;;2.38;2.28;;;;;;;25.11;39.79;64601.53;5023400;28;20273;-75
2022/07/17 08:40:17;;;;;;;2.65;2.50;;;;;;;25.22;39.77;64612.53;5023706;28;20373;-74
2022/07/17 08:42:44;;;;;;;3.97;2.95;;;;;;;25.18;39.42;64610.44;5023677;28;20197;-74
2022/07/17 08:45:11;;;;;;;3.10;2.80;;;;;;;25.35;40.01;64628.75;5023575;28;20218;-76
2022/07/17 08:47:39;;;;;;;3.42;3.10;;;;;;;25.40;39.81;64630.88;5023898;28;20205;-75
2022/07/17 08:50:09;;;;;;;4.22;2.90;;;;;;;25.52;39.06;64646.59;5023691;28;20200;-75
2022/07/17 08:52:37;;;;;;;2.75;2.30;;;;;;;25.58;39.11;64652.34;5023876;28;20214;-74
2022/07/17 08:55:05;;;;;;;2.97;2.78;;;;;;;25.78;38.71;64668.59;5023894;28;20198;-74
2022/07/17 08:57:32;;;;;;;4.53;2.55;;;;;;;25.66;39.28;64656.03;5024342;28;20226;-74
2022/07/17 08:59:59;;;;;;;2.60;2.50;;;;;;;25.67;38.62;64662.31;5022227;28;20261;-74
2022/07/17 09:02:25;;;;;;;2.75;2.50;;;;;;;25.80;38.79;64670.19;5009660;28;20373;-74
2022/07/17 09:04:55;;;;;;;2.55;2.45;;;;;;;25.67;39.34;64664.38;5024264;28;20450;-76
2022/07/17 09:07:24;;;;;;;2.67;2.38;;;;;;;25.73;38.21;64671.19;5022257;28;20454;-74
2022/07/17 09:09:52;;;;;;;3.10;2.90;;;;;;;25.73;39.37;64668.06;5023513;28;20507;-77
2022/07/17 09:12:23;;;;;;;2.72;2.63;;;;;;;25.65;37.78;64665.44;5023403;28;20222;-77
2022/07/17 09:14:50;;;;;;;4.10;2.70;;;;;;;25.74;37.39;64669.13;5024644;28;20194;-73
2022/07/17 09:17:17;;;;;;;3.08;2.80;;;;;;;25.71;37.92;64663.38;5022828;28;20275;-75
2022/07/17 09:19:46;;;;;;;3.47;2.60;;;;;;;25.94;37.63;64685.38;5024071;28;20204;-76
2022/07/17 09:22:15;;;;;;;3.05;2.90;;;;;;;25.79;36.62;64672.28;5023050;28;20218;-76
2022/07/17 09:24:47;;;;;;;2.50;2.40;;;;;;;26.08;37.64;64696.94;5018150;28;20226;-76
2022/07/17 09:27:18;;;;;;;4.05;2.67;;;;;;;26.23;36.88;64723.63;5021689;28;20252;-76
2022/07/17 09:29:53;;;;;;;2.40;2.30;;;;;;;25.99;38.08;64693.22;5023588;28;20198;-75
2022/07/17 09:32:20;;;;;;;3.55;2.72;;;;;;;26.02;37.99;64695.84;5022940;28;20217;-74
2022/07/17 09:34:47;;;;;;;4.13;2.85;;;;;;;25.90;36.91;64683.28;5023183;28;20202;-75
2022/07/17 09:37:15;;;;;;;2.85;2.63;;;;;;;26.09;37.84;64701.13;5021931;28;20252;-74
2022/07/17 09:39:43;;;;;;;3.03;2.70;;;;;;;26.01;38.32;64697.94;5024235;28;20202;-76
2022/07/17 09:42:11;;;;;;;2.70;2.53;;;;;;;26.23;37.54;64722.59;5022987;28;20214;-75
2022/07/17 09:44:38;;;;;;;2.75;2.55;;;;;;;26.46;37.53;64738.84;5022066;28;20224;-77
2022/07/17 09:47:05;;;;;;;2.90;2.80;;;;;;;26.32;38.11;64729.94;5026451;28;20230;-76
2022/07/17 09:49:34;;;;;;;2.45;2.30;;;;;;;26.13;38.01;64715.75;5026670;28;20417;-75
2022/07/17 09:52:02;;;;;;;3.20;2.70;;;;;;;26.00;38.14;64691.16;5027647;28;20245;-76
2022/07/17 09:54:31;;;;;;;3.80;2.30;;;;;;;26.09;38.16;64701.13;5026910;28;20228;-76
2022/07/17 09:57:01;;;;;;;2.58;2.42;;;;;;;26.34;37.29;64734.63;5026856;28;20221;-76
2022/07/17 09:59:32;;;;;;;2.60;2.40;;;;;;;26.60;36.16;64754.06;5026752;28;20503;-76
2022/07/17 10:02:01;;;;;;;3.88;2.97;;;;;;;26.86;37.38;64783.97;5027717;28;20225;-76
2022/07/17 10:04:28;;;;;;;4.05;2.40;;;;;;;26.28;35.96;64725.22;5023571;28;20214;-75
2022/07/17 10:06:55;;;;;;;2.17;2.08;;;;;;;26.33;35.85;64725.75;5025574;28;20562;-76
2022/07/17 10:09:23;;;;;;;2.80;2.50;;;;;;;26.40;36.25;64737.81;5030491;28;20201;-75
2022/07/17 10:11:51;;;;;;;2.83;2.60;;;;;;;26.54;36.17;64747.75;5029345;28;20395;-75
2022/07/17 10:14:20;;;;;;;2.83;2.15;;;;;;;26.64;35.54;64760.88;5027405;28;20226;-75
2022/07/17 10:16:47;;;;;;;8.23;6.70;;;;;;;26.73;36.14;64772.94;5025320;28;20452;-74
2022/07/17 10:19:19;;;;;;;2.30;2.20;;;;;;;26.69;36.13;64765.63;5015695;28;20245;-76
2022/07/17 10:21:57;;;;;;;2.63;2.53;;;;;;;26.96;34.95;64793.94;5015059;28;20500;-75
2022/07/17 10:24:25;;;;;;;4.70;4.30;;;;;;;27.04;36.07;64805.47;5018879;28;20206;-74
2022/07/17 10:26:52;;;;;;;2.50;2.40;;;;;;;27.04;35.49;64802.34;5026123;28;20265;-76
2022/07/17 10:29:31;;;;;;;3.55;3.25;;;;;;;27.15;36.00;64814.38;5026544;28;20202;-78
2022/07/17 10:31:59;;;;;;;2.90;2.60;;;;;;;27.17;35.35;64816.50;5026200;28;20252;-79
2022/07/17 10:34:44;;;;;;;4.63;2.50;;;;;;;26.95;37.53;64798.66;5026011;28;20208;-76
2022/07/17 10:37:23;;;;;;;6.90;3.05;;;;;;;27.09;37.23;64810.19;5026701;28;20226;-79
2022/07/17 10:39:55;;;;;;;2.40;2.30;;;;;;;27.06;36.03;64801.81;5024356;28;20201;-78
2022/07/17 10:42:42;;;;;;;2.90;2.67;;;;;;;27.25;36.10;64824.88;5026990;28;20240;-76
2022/07/17 10:45:14;;;;;;;2.80;2.60;;;;;;;27.29;36.17;64828.56;5023854;28;20230;-79
2022/07/17 10:47:52;;;;;;;3.70;2.83;;;;;;;27.23;36.40;64820.16;5026133;28;20486;-76
2022/07/17 10:50:22;;;;;;;2.35;2.22;;;;;;;27.32;35.65;64834.31;5026309;28;20286;-79
2022/07/17 10:53:04;;;;;;;2.95;2.50;;;;;;;27.44;35.95;64843.78;5027172;28;20206;-78
2022/07/17 10:55:32;;;;;;;5.15;2.30;;;;;;;27.34;36.65;64839.03;5026644;28;20226;-78
2022/07/17 10:57:59;;;;;;;3.08;2.75;;;;;;;27.72;36.51;64878.94;5024861;28;20515;-78
2022/07/17 11:00:28;;;;;;;2.65;2.45;;;;;;;27.36;36.06;64838.53;5023644;28;20228;-76
2022/07/17 11:02:55;;;;;;;2.38;2.28;;;;;;;27.45;35.30;64844.84;5024213;28;20397;-78
2022/07/17 11:05:23;;;;;;;3.05;2.38;;;;;;;27.59;36.21;64862.16;5024306;28;20241;-77
2022/07/17 11:07:55;;;;;;;2.42;2.30;;;;;;;27.95;35.00;64897.84;5024570;28;20277;-77
2022/07/17 11:10:25;;;;;;;2.95;2.47;;;;;;;27.84;34.84;64885.75;5024334;28;20200;-77
2022/07/17 11:12:52;;;;;;;2.47;2.33;;;;;;;28.03;34.84;64908.88;5025991;28;20198;-75
2022/07/17 11:15:19;;;;;;;3.28;2.70;;;;;;;28.03;34.54;64910.97;5022180;28;20205;-78
2022/07/17 11:17:49;;;;;;;2.45;2.35;;;;;;;27.80;34.58;64882.09;5023265;28;20268;-77
2022/07/17 11:20:17;;;;;;;2.85;2.55;;;;;;;28.18;34.10;64927.22;5023358;28;20249;-79
2022/07/17 11:22:44;;;;;;;3.75;2.75;;;;;;;28.19;33.83;64922.53;5025289;28;20198;-79
2022/07/17 11:25:12;;;;;;;2.63;2.38;;;;;;;28.10;34.40;64910.44;5019664;28;20431;-79
2022/07/17 11:27:41;;;;;;;2.45;2.33;;;;;;;28.25;33.78;64934.59;5022438;28;20270;-79
2022/07/17 11:30:15;;;;;;;3.15;2.95;;;;;;;28.66;32.62;64974.53;5024579;28;20195;-78
2022/07/17 11:32:42;;;;;;;2.30;2.20;;;;;;;29.04;32.92;65011.28;5023822;28;20185;-78
2022/07/17 11:35:19;;;;;;;2.83;2.63;;;;;;;29.06;32.54;65010.78;5023774;28;20194;-79
2022/07/17 11:37:46;;;;;;;2.47;2.33;;;;;;;28.94;33.69;65001.28;5021699;28;20240;-79